Time;durP1;ratioP1;P1;durP2;ratioP2;P2;SDS_P1;SDS_P2;PMS_P1;PMS_P2;Temp;Humidity;BMP_temperature;BMP_pressure;BME280_temperature;BME280_humidity;BME280_pressure;Samples;Min_cycle;Max_cycle;Signal;HPM_P1;HPM_P2
2023/08/10 00:00:15;;;;;;;1.15;0.77;;;16.00;99.90;;;;;;5115421;28;20437;-67
2023/08/10 00:02:42;;;;;;;1.40;1.10;;;16.00;99.90;;;;;;5133158;28;20035;-68
2023/08/10 00:05:09;;;;;;;1.92;1.20;;;15.90;99.90;;;;;;5133634;28;20383;-66
2023/08/10 00:07:35;;;;;;;1.33;1.08;;;16.00;99.90;;;;;;5133402;28;20123;-66
2023/08/10 00:10:02;;;;;;;1.23;1.02;;;15.90;99.90;;;;;;5133001;28;20114;-67
2023/08/10 00:12:28;;;;;;;2.63;1.00;;;15.90;99.90;;;;;;5133552;28;20459;-67
2023/08/10 00:14:53;;;;;;;3.75;1.20;;;15.90;99.90;;;;;;5132859;28;20042;-68
2023/08/10 00:17:19;;;;;;;1.95;0.90;;;15.90;99.90;;;;;;5133313;28;20027;-67
2023/08/10 00:19:44;;;;;;;1.40;1.10;;;15.90;99.90;;;;;;5133205;28;20512;-68
2023/08/10 00:22:10;;;;;;;1.15;0.90;;;15.90;99.90;;;;;;5129492;28;20023;-66
2023/08/10 00:24:37;;;;;;;1.25;1.00;;;15.80;99.90;;;;;;5133061;28;20450;-66
2023/08/10 00:27:03;;;;;;;1.63;1.10;;;15.80;99.90;;;;;;5132817;28;20095;-67
2023/08/10 00:29:29;;;;;;;3.08;1.20;;;15.80;99.90;;;;;;5132947;28;20027;-67
2023/08/10 00:31:54;;;;;;;2.33;1.08;;;15.80;99.90;;;;;;5132448;28;20035;-67
2023/08/10 00:34:20;;;;;;;4.00;1.08;;;15.80;99.90;;;;;;5132867;28;20084;-67
2023/08/10 00:36:46;;;;;;;2.50;1.08;;;15.70;99.90;;;;;;5132875;28;20034;-67
2023/08/10 00:39:11;;;;;;;2.67;0.88;;;15.70;99.90;;;;;;5133543;28;20060;-67
2023/08/10 00:41:38;;;;;;;4.28;1.00;;;15.70;99.90;;;;;;5133350;28;20106;-67
2023/08/10 00:44:04;;;;;;;1.33;1.20;;;15.70;99.90;;;;;;5134572;27;20019;-68
2023/08/10 00:46:31;;;;;;;1.63;1.17;;;15.70;99.90;;;;;;5118641;27;20027;-68
2023/08/10 00:48:56;;;;;;;2.78;1.30;;;15.70;99.90;;;;;;5136210;27;20043;-67
2023/08/10 00:51:22;;;;;;;1.52;1.00;;;15.60;99.90;;;;;;5137068;27;20030;-67
2023/08/10 00:53:48;;;;;;;1.10;1.00;;;15.60;99.90;;;;;;5136528;27;20022;-67
2023/08/10 00:56:16;;;;;;;1.40;0.93;;;15.60;99.90;;;;;;5136731;27;20478;-66
2023/08/10 00:58:42;;;;;;;2.22;1.10;;;15.60;99.90;;;;;;5136994;27;20027;-66
2023/08/10 01:01:07;;;;;;;1.05;0.93;;;15.60;99.90;;;;;;5136358;27;20065;-66
2023/08/10 01:03:33;;;;;;;1.20;1.02;;;15.60;99.90;;;;;;5136380;27;20467;-66
2023/08/10 01:06:11;;;;;;;2.05;1.02;;;15.60;99.90;;;;;;5136255;27;20071;-66
2023/08/10 01:08:54;;;;;;;1.20;1.00;;;15.50;99.90;;;;;;5136583;27;20103;-66
2023/08/10 01:11:38;;;;;;;1.48;1.15;;;15.50;99.90;;;;;;5136738;27;20097;-66
2023/08/10 01:14:19;;;;;;;1.00;0.90;;;15.50;99.90;;;;;;5135802;27;20023;-66
2023/08/10 01:16:46;;;;;;;;;;;15.50;99.90;;;;;;5136481;27;20037;-73
2023/08/10 01:19:35;;;;;;;1.48;1.05;;;15.50;99.90;;;;;;5136290;27;19907;-66
2023/08/10 01:22:28;;;;;;;2.10;1.00;;;15.50;99.90;;;;;;5136044;27;20038;-67
2023/08/10 01:25:06;;;;;;;1.27;0.98;;;15.50;99.90;;;;;;5136270;27;20459;-68
2023/08/10 01:27:34;;;;;;;0.77;0.77;;;15.50;99.90;;;;;;5136338;27;20084;-67
2023/08/10 01:30:01;;;;;;;1.23;1.00;;;15.40;99.90;;;;;;5135870;27;20019;-67
2023/08/10 01:32:29;;;;;;;1.20;0.98;;;15.40;99.90;;;;;;5136155;27;20023;-67
2023/08/10 01:34:55;;;;;;;0.98;0.85;;;15.40;99.90;;;;;;5135557;27;20039;-67
2023/08/10 01:37:21;;;;;;;1.23;0.90;;;15.40;99.90;;;;;;5136164;27;20038;-67
2023/08/10 01:39:47;;;;;;;2.22;0.90;;;15.30;99.90;;;;;;5135420;27;20458;-74
2023/08/10 01:42:13;;;;;;;1.05;0.80;;;15.30;99.90;;;;;;5136353;27;20496;-68
2023/08/10 01:44:38;;;;;;;4.53;0.90;;;15.30;99.90;;;;;;5135501;27;20035;-66
2023/08/10 01:47:11;;;;;;;3.88;1.00;;;15.30;99.90;;;;;;5135859;27;20371;-67
2023/08/10 01:49:38;;;;;;;3.17;0.80;;;15.30;99.90;;;;;;5135997;27;20043;-66
2023/08/10 01:52:08;;;;;;;1.10;1.00;;;15.20;99.90;;;;;;5117085;27;20020;-67
2023/08/10 01:54:36;;;;;;;1.17;1.00;;;15.20;99.90;;;;;;5135236;27;20042;-68
2023/08/10 01:57:02;;;;;;;4.05;0.90;;;15.20;99.90;;;;;;5135229;27;20035;-67
2023/08/10 01:59:28;;;;;;;1.20;1.00;;;15.20;99.90;;;;;;5135598;27;20425;-67
2023/08/10 02:01:55;;;;;;;1.10;0.93;;;15.20;99.90;;;;;;5135221;27;20099;-66
2023/08/10 02:04:20;;;;;;;1.67;1.00;;;15.20;99.90;;;;;;5117138;27;20028;-66
2023/08/10 02:06:46;;;;;;;1.48;0.90;;;15.20;99.90;;;;;;5135536;27;20080;-65
2023/08/10 02:09:12;;;;;;;1.90;0.98;;;15.20;99.90;;;;;;5134985;27;20524;-66
2023/08/10 02:11:37;;;;;;;1.27;1.02;;;15.20;99.90;;;;;;5116978;27;20023;-65
2023/08/10 02:14:03;;;;;;;2.35;1.10;;;15.20;99.90;;;;;;5135221;27;20028;-66
2023/08/10 02:16:28;;;;;;;1.23;0.98;;;15.10;99.90;;;;;;5135280;27;20160;-66
2023/08/10 02:18:54;;;;;;;4.63;1.08;;;15.10;99.90;;;;;;5134826;27;20374;-66
2023/08/10 02:21:23;;;;;;;1.02;0.90;;;15.10;99.90;;;;;;5134887;27;20061;-66
2023/08/10 02:23:50;;;;;;;1.90;0.98;;;15.10;99.90;;;;;;5135187;27;20153;-66
2023/08/10 02:26:16;;;;;;;1.88;0.95;;;15.10;99.90;;;;;;5135011;27;20035;-66
2023/08/10 02:28:42;;;;;;;1.58;0.90;;;15.10;99.90;;;;;;5134999;27;20034;-65
2023/08/10 02:31:07;;;;;;;2.10;0.88;;;15.10;99.90;;;;;;5134120;27;20030;-66
2023/08/10 02:33:33;;;;;;;1.52;0.90;;;15.00;99.90;;;;;;5116628;27;20046;-65
2023/08/10 02:35:59;;;;;;;0.70;0.70;;;15.00;99.90;;;;;;5113882;28;20038;-65
2023/08/10 02:38:24;;;;;;;1.40;1.05;;;15.10;99.90;;;;;;5114008;28;20031;-67
2023/08/10 02:40:50;;;;;;;1.52;1.00;;;15.00;99.90;;;;;;5113988;28;20468;-67
2023/08/10 02:43:15;;;;;;;1.58;1.00;;;15.10;99.90;;;;;;5113740;28;20023;-68
2023/08/10 02:45:41;;;;;;;1.38;1.05;;;15.00;99.90;;;;;;5114112;28;20031;-67
2023/08/10 02:48:07;;;;;;;1.50;1.10;;;15.00;99.90;;;;;;5113937;28;20034;-68
2023/08/10 02:50:32;;;;;;;1.38;0.95;;;15.00;99.90;;;;;;5113746;28;20056;-67
2023/08/10 02:52:58;;;;;;;3.63;1.08;;;15.00;99.90;;;;;;5113276;28;20020;-68
2023/08/10 02:55:24;;;;;;;2.80;0.80;;;15.00;99.90;;;;;;5113872;28;20028;-67
2023/08/10 02:57:50;;;;;;;1.05;0.90;;;15.00;99.90;;;;;;5113775;28;20027;-67
2023/08/10 03:00:17;;;;;;;1.50;1.10;;;15.00;99.90;;;;;;5113244;28;20032;-66
2023/08/10 03:02:43;;;;;;;1.10;0.90;;;15.00;99.90;;;;;;5113749;28;20036;-67
2023/08/10 03:05:09;;;;;;;2.15;1.10;;;15.00;99.90;;;;;;5113348;28;20035;-66
2023/08/10 03:07:36;;;;;;;1.23;1.00;;;15.00;99.90;;;;;;5113016;28;20020;-66
2023/08/10 03:10:02;;;;;;;1.10;0.98;;;15.00;99.90;;;;;;5113296;28;20024;-68
2023/08/10 03:12:27;;;;;;;1.20;1.00;;;15.00;99.90;;;;;;5113613;28;20474;-68
2023/08/10 03:14:53;;;;;;;1.23;1.10;;;15.00;99.90;;;;;;5113478;28;20071;-67
2023/08/10 03:17:18;;;;;;;1.33;1.20;;;15.00;99.90;;;;;;5113104;28;20024;-68
2023/08/10 03:19:44;;;;;;;1.50;1.20;;;15.00;99.90;;;;;;5113558;28;20031;-68
2023/08/10 03:22:10;;;;;;;1.20;0.90;;;15.00;99.90;;;;;;5113144;28;20020;-68
2023/08/10 03:24:37;;;;;;;2.10;1.02;;;15.00;99.90;;;;;;5113459;28;20502;-67
2023/08/10 03:27:02;;;;;;;2.13;1.25;;;15.00;99.90;;;;;;5113028;28;20372;-68
2023/08/10 03:29:28;;;;;;;1.13;0.90;;;15.00;99.90;;;;;;5113484;28;20024;-67
2023/08/10 03:31:54;;;;;;;1.58;1.10;;;15.00;99.90;;;;;;5113744;28;20023;-68
2023/08/10 03:34:20;;;;;;;1.75;1.08;;;15.00;99.90;;;;;;5112764;28;20031;-68
2023/08/10 03:36:45;;;;;;;1.70;1.13;;;15.00;99.90;;;;;;5113152;28;20352;-68
2023/08/10 03:39:11;;;;;;;1.60;1.10;;;15.00;99.90;;;;;;5113065;28;20055;-67
2023/08/10 03:41:36;;;;;;;2.63;1.35;;;15.00;99.90;;;;;;5113471;28;20055;-67
2023/08/10 03:44:02;;;;;;;5.13;1.40;;;15.00;99.90;;;;;;5112788;28;20416;-67
2023/08/10 03:46:28;;;;;;;2.33;1.33;;;15.00;99.90;;;;;;5133088;27;20091;-67
2023/08/10 03:48:53;;;;;;;1.27;1.05;;;14.90;99.90;;;;;;5133054;27;20039;-67
2023/08/10 03:51:20;;;;;;;2.22;1.17;;;14.90;99.90;;;;;;5133327;27;20356;-67
2023/08/10 03:53:45;;;;;;;1.23;1.10;;;14.90;99.90;;;;;;5133630;27;20019;-67
2023/08/10 03:56:11;;;;;;;2.85;1.33;;;14.90;99.90;;;;;;5132877;27;20513;-67
2023/08/10 03:58:37;;;;;;;3.20;1.35;;;14.90;99.90;;;;;;5133578;28;20156;-67
2023/08/10 04:01:03;;;;;;;2.05;1.30;;;14.90;99.90;;;;;;5133151;28;20027;-67
2023/08/10 04:03:29;;;;;;;2.90;1.10;;;14.90;99.90;;;;;;5133427;28;20022;-67
2023/08/10 04:05:55;;;;;;;1.20;1.10;;;14.90;99.90;;;;;;5133195;28;20383;-67
2023/08/10 04:08:20;;;;;;;1.73;1.17;;;14.90;99.90;;;;;;5133071;28;20069;-67
2023/08/10 04:10:46;;;;;;;2.63;1.45;;;15.00;99.90;;;;;;5133428;28;20042;-67
2023/08/10 04:13:12;;;;;;;2.00;1.77;;;15.00;99.90;;;;;;5132688;28;20024;-67
2023/08/10 04:15:38;;;;;;;3.33;1.73;;;15.00;99.90;;;;;;5133257;28;20066;-67
2023/08/10 04:18:03;;;;;;;4.95;1.88;;;15.00;99.90;;;;;;5134833;27;20065;-67
2023/08/10 04:20:30;;;;;;;5.70;2.00;;;15.00;99.90;;;;;;5137138;27;20042;-67
2023/08/10 04:22:57;;;;;;;2.95;1.70;;;15.00;99.90;;;;;;5137491;27;20106;-67
2023/08/10 04:25:23;;;;;;;2.47;1.40;;;15.00;99.90;;;;;;5137100;27;20037;-67
2023/08/10 04:27:48;;;;;;;1.80;1.55;;;15.10;99.90;;;;;;5137134;27;20107;-66
2023/08/10 04:30:14;;;;;;;3.35;1.30;;;15.10;99.90;;;;;;5136936;27;20023;-67
2023/08/10 04:32:40;;;;;;;57.58;28.13;;;15.10;99.90;;;;;;5133371;27;20367;-67
2023/08/10 04:35:06;;;;;;;5.00;1.38;;;15.20;99.90;;;;;;5116412;28;20059;-67
2023/08/10 04:37:32;;;;;;;2.65;1.60;;;15.30;99.90;;;;;;5116638;28;20020;-67
2023/08/10 04:39:57;;;;;;;2.15;1.50;;;15.30;99.90;;;;;;5116586;28;20528;-67
2023/08/10 04:42:23;;;;;;;1.27;1.13;;;15.40;99.90;;;;;;5116010;28;20028;-66
2023/08/10 04:44:48;;;;;;;5.28;1.40;;;15.50;99.90;;;;;;5116547;28;20031;-66
2023/08/10 04:47:14;;;;;;;1.73;1.30;;;15.60;99.90;;;;;;5116177;28;20023;-67
2023/08/10 04:49:40;;;;;;;2.88;1.27;;;15.70;99.90;;;;;;5116318;28;20387;-68
2023/08/10 04:52:05;;;;;;;2.92;1.35;;;15.90;99.90;;;;;;5115742;28;20023;-68
2023/08/10 04:54:31;;;;;;;4.65;1.85;;;16.00;99.90;;;;;;5116431;28;20027;-67
2023/08/10 04:56:57;;;;;;;3.63;2.03;;;16.00;99.90;;;;;;5116127;28;20474;-67
2023/08/10 04:59:22;;;;;;;5.32;2.53;;;16.00;99.90;;;;;;5116026;28;20114;-67
2023/08/10 05:01:48;;;;;;;6.72;2.45;;;16.10;99.90;;;;;;5116279;28;20038;-67
2023/08/10 05:04:15;;;;;;;5.88;2.47;;;16.20;99.90;;;;;;5115423;28;20077;-67
2023/08/10 05:06:41;;;;;;;5.03;2.20;;;16.20;99.90;;;;;;5116062;28;20034;-67
2023/08/10 05:09:06;;;;;;;4.75;2.15;;;16.20;99.90;;;;;;5115570;28;20376;-67
2023/08/10 05:11:32;;;;;;;3.08;1.90;;;16.20;99.90;;;;;;5116067;28;20107;-67
2023/08/10 05:13:59;;;;;;;5.18;2.40;;;16.30;99.90;;;;;;5115931;28;20102;-66
2023/08/10 05:16:24;;;;;;;6.57;2.50;;;16.30;99.90;;;;;;5115095;28;20070;-67
2023/08/10 05:18:50;;;;;;;3.90;2.33;;;16.40;99.90;;;;;;5115841;28;20047;-67
2023/08/10 05:21:17;;;;;;;4.18;2.03;;;16.40;99.90;;;;;;5115435;28;20077;-67
2023/08/10 05:23:42;;;;;;;4.85;2.25;;;16.40;99.90;;;;;;5115717;28;20379;-67
2023/08/10 05:26:08;;;;;;;6.55;2.20;;;16.40;99.90;;;;;;5115317;28;20038;-67
2023/08/10 05:28:34;;;;;;;3.28;1.80;;;16.40;99.90;;;;;;5115676;28;20020;-67
2023/08/10 05:31:00;;;;;;;4.63;2.03;;;16.40;99.90;;;;;;5115054;28;20031;-67
2023/08/10 05:33:26;;;;;;;5.80;1.85;;;16.50;99.90;;;;;;5115120;28;20024;-67
2023/08/10 05:35:51;;;;;;;2.63;1.63;;;16.50;99.90;;;;;;5115552;28;20108;-67
2023/08/10 05:38:17;;;;;;;3.53;1.63;;;16.60;99.90;;;;;;5130478;27;20023;-66
2023/08/10 05:40:43;;;;;;;2.13;1.40;;;16.60;99.90;;;;;;5135949;27;20034;-66
2023/08/10 05:43:09;;;;;;;2.97;1.75;;;16.60;99.90;;;;;;5134909;27;20505;-68
2023/08/10 05:45:35;;;;;;;2.88;1.63;;;16.80;99.90;;;;;;5135709;27;20042;-66
2023/08/10 05:48:00;;;;;;;2.78;1.67;;;17.10;99.90;;;;;;5135828;27;20031;-66
2023/08/10 05:50:26;;;;;;;2.55;1.60;;;17.60;99.90;;;;;;5135703;27;20428;-67
2023/08/10 05:52:52;;;;;;;2.78;1.75;;;18.10;99.90;;;;;;5135634;27;20400;-67
2023/08/10 05:55:17;;;;;;;5.07;1.70;;;18.60;99.90;;;;;;5135355;27;20399;-67
2023/08/10 05:57:43;;;;;;;5.57;1.77;;;19.40;99.50;;;;;;5135520;27;20027;-67
2023/08/10 06:00:14;;;;;;;2.35;1.50;;;19.60;97.30;;;;;;5135113;27;20072;-67
2023/08/10 06:02:41;;;;;;;3.38;1.55;;;20.00;95.00;;;;;;5135636;27;20027;-66
2023/08/10 06:05:07;;;;;;;3.38;1.35;;;21.10;94.60;;;;;;5135081;27;20034;-66
2023/08/10 06:07:33;;;;;;;4.68;1.42;;;21.40;90.10;;;;;;5135658;27;20027;-66
2023/08/10 06:10:00;;;;;;;2.00;1.45;;;22.40;90.90;;;;;;5116952;27;20027;-66
2023/08/10 06:12:25;;;;;;;2.58;1.27;;;23.20;85.00;;;;;;5134987;27;20050;-66
2023/08/10 06:14:51;;;;;;;4.63;1.40;;;24.00;80.80;;;;;;5116852;27;20444;-66
2023/08/10 06:17:16;;;;;;;2.40;1.45;;;24.80;76.30;;;;;;5134822;27;20068;-67
2023/08/10 06:19:51;;;;;;;7.30;1.67;;;25.40;71.00;;;;;;5135220;27;20114;-67
2023/08/10 06:22:17;;;;;;;4.15;1.83;;;25.90;68.70;;;;;;5134700;27;20027;-67
2023/08/10 06:24:43;;;;;;;3.45;1.73;;;26.40;66.00;;;;;;5135110;27;20058;-67
2023/08/10 06:27:09;;;;;;;5.35;1.58;;;26.40;64.20;;;;;;5116133;27;20062;-67
2023/08/10 06:29:35;;;;;;;1.98;1.30;;;26.30;63.70;;;;;;5134827;27;20412;-66
2023/08/10 06:32:05;;;;;;;3.65;1.42;;;26.10;61.70;;;;;;5134945;27;20122;-66
2023/08/10 06:34:30;;;;;;;3.80;1.65;;;25.90;63.60;;;;;;5119540;27;20028;-66
2023/08/10 06:36:56;;;;;;;5.38;1.50;;;26.10;62.60;;;;;;5114378;28;20397;-66
2023/08/10 06:39:21;;;;;;;1.83;1.50;;;26.60;63.10;;;;;;5113823;28;20039;-66
2023/08/10 06:41:47;;;;;;;1.75;1.33;;;26.80;59.80;;;;;;5113143;28;20117;-66
2023/08/10 06:44:13;;;;;;;1.50;1.30;;;27.20;60.30;;;;;;5113858;28;20111;-66
2023/08/10 06:46:38;;;;;;;3.45;1.38;;;27.70;58.70;;;;;;5114307;28;20080;-66
2023/08/10 06:49:04;;;;;;;2.85;1.42;;;28.40;56.70;;;;;;5113826;28;20055;-67
2023/08/10 06:51:30;;;;;;;3.25;1.50;;;28.90;55.90;;;;;;5113848;28;20119;-67
2023/08/10 06:53:56;;;;;;;2.05;1.42;;;29.20;53.60;;;;;;5114005;28;20027;-67
2023/08/10 06:56:21;;;;;;;3.22;1.50;;;28.90;52.70;;;;;;5113569;28;20046;-67
2023/08/10 06:58:47;;;;;;;2.17;1.30;;;29.50;52.20;;;;;;5113837;28;20460;-66
2023/08/10 07:01:13;;;;;;;3.78;1.60;;;30.10;52.20;;;;;;5113620;28;20055;-68
2023/08/10 07:03:38;;;;;;;2.30;1.60;;;30.50;51.70;;;;;;5114071;28;20020;-67
2023/08/10 07:06:04;;;;;;;4.55;1.50;;;30.50;50.10;;;;;;5113691;28;20036;-67
2023/08/10 07:08:30;;;;;;;2.63;1.48;;;30.70;49.70;;;;;;5113887;28;20337;-67
2023/08/10 07:10:55;;;;;;;1.55;1.27;;;31.20;48.90;;;;;;5113879;28;20023;-66
2023/08/10 07:13:21;;;;;;;1.67;1.42;;;31.50;48.20;;;;;;5113429;28;20479;-66
2023/08/10 07:15:47;;;;;;;6.25;1.80;;;31.70;47.90;;;;;;5113693;28;20084;-66
2023/08/10 07:18:14;;;;;;;2.92;1.15;;;32.30;47.30;;;;;;5113297;28;20024;-68
2023/08/10 07:20:40;;;;;;;3.83;1.67;;;32.80;46.50;;;;;;5113670;28;20070;-67
2023/08/10 07:23:06;;;;;;;2.35;1.55;;;33.10;46.10;;;;;;5113731;28;20051;-66
2023/08/10 07:25:31;;;;;;;2.47;1.40;;;33.50;44.80;;;;;;5113298;28;20576;-67
2023/08/10 07:27:57;;;;;;;2.17;1.52;;;34.00;44.50;;;;;;5113542;28;20031;-67
2023/08/10 07:30:23;;;;;;;2.20;1.52;;;34.60;42.60;;;;;;5113150;28;20107;-67
2023/08/10 07:32:48;;;;;;;2.70;1.50;;;34.80;41.50;;;;;;5113186;28;20031;-67
2023/08/10 07:35:14;;;;;;;3.33;1.55;;;35.10;41.60;;;;;;5113090;28;20032;-67
2023/08/10 07:37:40;;;;;;;3.28;1.45;;;35.50;40.70;;;;;;5113192;28;20065;-67
2023/08/10 07:40:08;;;;;;;1.75;1.60;;;35.70;40.50;;;;;;5119313;27;20106;-67
2023/08/10 07:42:34;;;;;;;2.00;1.77;;;36.10;39.90;;;;;;5133135;27;20023;-67
2023/08/10 07:44:59;;;;;;;3.97;1.55;;;35.80;39.70;;;;;;5134051;27;20382;-67
2023/08/10 07:47:25;;;;;;;5.45;2.08;;;36.00;39.90;;;;;;5133792;27;20094;-67
2023/08/10 07:49:51;;;;;;;2.65;1.60;;;36.50;40.40;;;;;;5133954;27;20051;-67
2023/08/10 07:52:17;;;;;;;4.93;1.70;;;36.80;38.30;;;;;;5133153;27;20023;-67
2023/08/10 07:54:43;;;;;;;1.73;1.38;;;36.70;38.20;;;;;;5133735;27;20066;-67
2023/08/10 07:57:09;;;;;;;6.70;1.85;;;36.60;38.30;;;;;;5115318;28;20035;-67
2023/08/10 07:59:35;;;;;;;2.75;1.90;;;35.90;38.60;;;;;;5133371;28;20027;-66
2023/08/10 08:02:00;;;;;;;3.60;1.45;;;35.80;38.00;;;;;;5133457;28;20026;-67
2023/08/10 08:04:26;;;;;;;1.65;1.40;;;35.30;38.40;;;;;;5133355;28;20023;-67
2023/08/10 08:06:52;;;;;;;2.92;1.60;;;35.70;39.60;;;;;;5133996;28;20375;-67
2023/08/10 08:09:17;;;;;;;7.80;1.60;;;36.00;38.30;;;;;;5133645;28;20027;-67
2023/08/10 08:11:43;;;;;;;2.35;1.73;;;35.90;38.30;;;;;;5133527;28;20031;-67
2023/08/10 08:14:08;;;;;;;2.35;1.80;;;35.20;38.50;;;;;;5133556;28;20023;-67
2023/08/10 08:16:34;;;;;;;1.83;1.52;;;35.50;39.00;;;;;;5133031;28;20110;-67
2023/08/10 08:19:00;;;;;;;3.53;1.65;;;35.50;38.50;;;;;;5133153;28;20019;-67
2023/08/10 08:21:29;;;;;;;1.85;1.50;;;35.30;39.00;;;;;;5133196;28;20049;-67
2023/08/10 08:23:55;;;;;;;2.15;1.40;;;35.10;39.00;;;;;;5133322;28;20497;-67
2023/08/10 08:26:30;;;;;;;2.03;1.40;;;34.80;38.40;;;;;;5133166;28;20042;-67
2023/08/10 08:28:57;;;;;;;3.00;1.35;;;34.20;38.60;;;;;;5133599;28;20096;-67
2023/08/10 08:31:23;;;;;;;2.50;1.45;;;33.80;39.00;;;;;;5132792;28;20364;-67
2023/08/10 08:33:50;;;;;;;3.10;1.50;;;33.60;39.20;;;;;;5132722;28;20088;-67
2023/08/10 08:36:16;;;;;;;2.25;1.23;;;33.50;38.80;;;;;;5130881;28;20088;-67
2023/08/10 08:38:41;;;;;;;1.73;1.20;;;33.30;39.30;;;;;;5133129;28;20413;-67
2023/08/10 08:41:09;;;;;;;2.78;1.50;;;33.10;39.20;;;;;;5133393;28;20131;-67
2023/08/10 08:43:35;;;;;;;3.33;1.83;;;32.20;39.60;;;;;;5132646;28;20546;-67
2023/08/10 08:46:02;;;;;;;3.45;1.40;;;31.30;40.70;;;;;;5133247;28;20031;-67
2023/08/10 08:48:28;;;;;;;2.20;1.30;;;30.40;40.70;;;;;;5132688;28;20023;-67
2023/08/10 08:50:55;;;;;;;2.28;1.30;;;30.00;41.90;;;;;;5133488;28;20019;-67
2023/08/10 08:53:21;;;;;;;1.67;1.15;;;29.10;43.30;;;;;;5132817;28;20035;-67
2023/08/10 08:55:47;;;;;;;1.52;1.42;;;28.40;44.60;;;;;;5133308;28;20483;-66
2023/08/10 08:58:16;;;;;;;2.33;1.38;;;28.10;46.30;;;;;;5133197;28;20055;-66
2023/08/10 09:00:52;;;;;;;2.45;1.25;;;27.40;47.40;;;;;;5132644;28;20383;-66
2023/08/10 09:03:19;;;;;;;2.85;1.38;;;26.90;49.10;;;;;;5132694;27;20034;-67
2023/08/10 09:05:46;;;;;;;4.32;1.35;;;26.50;49.50;;;;;;5135782;27;20106;-67
2023/08/10 09:08:17;;;;;;;4.10;1.67;;;26.20;50.80;;;;;;5136726;27;20027;-66
2023/08/10 09:10:46;;;;;;;;;;;26.00;52.10;;;;;;5136849;27;20023;-66
2023/08/10 09:13:17;;;;;;;3.40;1.60;;;25.80;53.10;;;;;;5136755;27;20271;-66
2023/08/10 09:15:43;;;;;;;2.97;1.88;;;25.50;54.00;;;;;;5135977;27;20387;-66
2023/08/10 09:18:09;;;;;;;3.28;1.80;;;25.40;54.60;;;;;;5136517;27;20039;-66
2023/08/10 09:20:34;;;;;;;6.20;1.50;;;25.10;54.30;;;;;;5135879;27;20028;-66
2023/08/10 09:23:01;;;;;;;1.60;1.50;;;25.10;55.30;;;;;;5118360;27;20065;-65
2023/08/10 09:25:33;;;;;;;1.60;1.48;;;24.90;55.50;;;;;;5136143;27;20023;-65
2023/08/10 09:27:59;;;;;;;3.25;1.45;;;24.60;56.80;;;;;;5136690;27;20019;-66
2023/08/10 09:30:25;;;;;;;2.95;1.33;;;24.50;56.70;;;;;;5135688;27;20075;-66
2023/08/10 09:32:51;;;;;;;4.13;1.60;;;24.40;56.80;;;;;;5136322;27;20023;-66
2023/08/10 09:35:18;;;;;;;1.40;1.20;;;24.20;56.80;;;;;;5135747;27;20035;-65
2023/08/10 09:37:46;;;;;;;2.28;1.33;;;24.10;57.10;;;;;;5135834;27;20057;-67
2023/08/10 09:40:15;;;;;;;2.03;1.67;;;24.00;57.70;;;;;;5136121;27;20023;-65
2023/08/10 09:42:41;;;;;;;2.67;1.63;;;23.90;58.30;;;;;;5135778;27;20020;-65
2023/08/10 09:45:09;;;;;;;4.05;1.40;;;23.90;58.60;;;;;;5135696;27;20031;-67
2023/08/10 09:47:37;;;;;;;6.03;1.88;;;23.70;57.60;;;;;;5135699;27;20061;-66
2023/08/10 09:50:12;;;;;;;2.03;1.50;;;23.80;59.00;;;;;;5135806;27;20096;-66
2023/08/10 09:52:39;;;;;;;2.42;1.20;;;24.00;59.20;;;;;;5135573;27;20048;-66
2023/08/10 09:55:06;;;;;;;6.93;1.40;;;24.20;58.30;;;;;;5135810;27;20046;-66
2023/08/10 09:57:33;;;;;;;2.00;1.23;;;24.30;57.20;;;;;;5135357;27;20026;-66
2023/08/10 09:59:59;;;;;;;4.30;1.48;;;24.60;58.00;;;;;;5135809;27;20096;-65
2023/08/10 10:02:26;;;;;;;1.58;1.38;;;24.80;57.30;;;;;;5135326;27;20456;-66
2023/08/10 10:04:52;;;;;;;2.70;1.23;;;24.90;55.60;;;;;;5135906;27;20452;-65
2023/08/10 10:07:28;;;;;;;1.48;1.38;;;25.10;56.30;;;;;;5135996;27;20023;-67
2023/08/10 10:09:57;;;;;;;2.10;1.55;;;25.20;54.50;;;;;;5117297;27;20028;-67
2023/08/10 10:12:24;;;;;;;2.95;1.60;;;25.00;52.80;;;;;;5135634;27;20027;-66
2023/08/10 10:14:52;;;;;;;5.43;2.08;;;24.80;54.40;;;;;;5135554;27;20031;-67
2023/08/10 10:17:19;;;;;;;3.80;1.85;;;24.80;57.20;;;;;;5135400;27;20019;-67
2023/08/10 10:19:46;;;;;;;7.55;2.05;;;24.70;62.10;;;;;;5135032;27;20387;-67
2023/08/10 10:22:15;;;;;;;3.33;1.95;;;24.50;62.80;;;;;;5135724;27;20379;-67
2023/08/10 10:24:41;;;;;;;4.03;2.47;;;24.40;63.50;;;;;;5134672;27;20029;-67
2023/08/10 10:27:11;;;;;;;3.10;2.00;;;24.20;65.90;;;;;;5135280;27;20023;-67
2023/08/10 10:29:37;;;;;;;2.42;1.88;;;24.10;66.80;;;;;;5134709;27;20463;-67
2023/08/10 10:32:18;;;;;;;1.60;1.30;;;23.90;64.90;;;;;;5135216;27;20371;-67
2023/08/10 10:34:45;;;;;;;1.95;1.48;;;23.70;62.40;;;;;;5134756;27;20072;-67
2023/08/10 10:37:40;;;;;;;2.40;1.70;;;23.60;63.60;;;;;;5135027;27;20031;-67
2023/08/10 10:40:18;;;;;;;3.70;1.70;;;23.60;63.40;;;;;;5117108;27;20035;-67
2023/08/10 10:43:03;;;;;;;1.85;1.52;;;23.60;64.10;;;;;;5134675;27;20054;-68
2023/08/10 10:45:35;;;;;;;2.63;1.60;;;23.60;63.00;;;;;;5132796;27;20031;-68
2023/08/10 10:48:00;;;;;;;4.05;1.95;;;23.50;66.10;;;;;;5136652;27;20111;-67
2023/08/10 10:50:29;;;;;;;3.08;1.77;;;23.60;67.40;;;;;;5136517;27;20079;-67
2023/08/10 10:53:16;;;;;;;1.92;1.70;;;23.50;67.40;;;;;;5136140;27;20027;-67
2023/08/10 10:55:43;;;;;;;2.20;1.60;;;23.50;66.80;;;;;;5135876;27;20088;-67
2023/08/10 10:58:14;;;;;;;2.90;2.03;;;23.40;66.30;;;;;;5135787;27;20463;-67
2023/08/10 11:00:41;;;;;;;2.70;1.85;;;23.30;65.60;;;;;;5134649;27;20102;-67
2023/08/10 11:03:10;;;;;;;2.20;1.60;;;23.20;66.60;;;;;;5134553;27;20096;-67
2023/08/10 11:05:36;;;;;;;3.10;1.30;;;23.20;65.70;;;;;;5134689;27;20118;-67
2023/08/10 11:08:03;;;;;;;1.83;1.50;;;23.00;64.40;;;;;;5134645;27;20344;-67
2023/08/10 11:10:37;;;;;;;2.28;1.40;;;22.90;64.20;;;;;;5134022;27;20430;-68
2023/08/10 11:13:12;;;;;;;1.90;1.38;;;22.70;63.90;;;;;;5134281;27;20031;-67
2023/08/10 11:15:38;;;;;;;4.57;1.58;;;22.60;64.00;;;;;;5133619;27;20536;-67
2023/08/10 11:18:11;;;;;;;1.75;1.27;;;22.50;63.60;;;;;;5134411;27;20019;-66
2023/08/10 11:20:45;;;;;;;1.58;1.33;;;22.40;63.80;;;;;;5134076;27;20028;-66
2023/08/10 11:23:11;;;;;;;2.45;1.33;;;22.40;63.60;;;;;;5134274;27;20056;-66
2023/08/10 11:25:41;;;;;;;2.40;1.40;;;22.30;63.00;;;;;;5133833;27;20039;-67
2023/08/10 11:28:07;;;;;;;1.77;1.20;;;22.30;63.50;;;;;;5133672;27;20015;-66
2023/08/10 11:30:51;;;;;;;1.73;1.40;;;22.30;62.00;;;;;;5133253;27;20332;-66
2023/08/10 11:33:18;;;;;;;4.03;1.40;;;22.30;62.20;;;;;;5133837;27;20030;-66
2023/08/10 11:35:53;;;;;;;2.97;1.80;;;22.20;61.40;;;;;;5132963;27;20034;-66
2023/08/10 11:38:22;;;;;;;4.43;1.45;;;22.10;61.10;;;;;;5134144;27;20409;-66
2023/08/10 11:40:48;;;;;;;1.58;1.35;;;22.10;61.90;;;;;;5133621;27;20023;-66
2023/08/10 11:43:15;;;;;;;1.60;1.23;;;22.00;61.50;;;;;;5133935;27;20034;-66
2023/08/10 11:45:42;;;;;;;1.60;1.30;;;22.10;62.10;;;;;;5133040;27;20046;-66
2023/08/10 11:48:10;;;;;;;1.88;1.35;;;22.10;62.00;;;;;;5133997;27;20023;-66
2023/08/10 11:50:38;;;;;;;2.60;1.85;;;22.20;62.20;;;;;;5133599;27;20043;-66
2023/08/10 11:53:15;;;;;;;2.08;1.40;;;22.20;61.80;;;;;;5133634;27;20447;-66
2023/08/10 11:55:51;;;;;;;2.17;1.67;;;22.10;61.90;;;;;;5133351;27;20060;-66
2023/08/10 11:58:18;;;;;;;2.42;1.33;;;22.10;62.20;;;;;;5133682;27;20028;-66
2023/08/10 12:00:49;;;;;;;1.70;1.40;;;22.10;62.80;;;;;;5132818;28;20482;-66
2023/08/10 12:03:16;;;;;;;4.68;1.80;;;22.10;63.00;;;;;;5133639;28;20027;-66
2023/08/10 12:05:49;;;;;;;5.57;1.70;;;22.00;63.90;;;;;;5132963;28;20027;-65
2023/08/10 12:08:26;;;;;;;3.03;2.00;;;22.00;64.90;;;;;;5133536;28;20039;-66
2023/08/10 12:11:19;;;;;;;2.35;1.73;;;21.90;66.90;;;;;;5133062;28;20031;-67
2023/08/10 12:13:49;;;;;;;2.53;1.80;;;21.80;68.70;;;;;;5132987;28;20055;-66
2023/08/10 12:16:20;;;;;;;2.27;1.67;;;21.80;69.00;;;;;;5133681;28;20383;-66
2023/08/10 12:18:46;;;;;;;3.25;2.25;;;21.70;69.80;;;;;;5133130;28;20312;-67
2023/08/10 12:21:12;;;;;;;2.80;1.80;;;21.60;70.30;;;;;;5133464;28;20114;-66
2023/08/10 12:23:38;;;;;;;3.10;2.20;;;21.60;72.30;;;;;;5133241;28;20102;-67
2023/08/10 12:26:04;;;;;;;4.35;2.97;;;21.50;72.70;;;;;;5133482;28;20413;-66
2023/08/10 12:28:29;;;;;;;4.60;2.45;;;21.50;72.60;;;;;;5115242;28;20034;-66
2023/08/10 12:30:55;;;;;;;4.43;2.42;;;21.30;75.20;;;;;;5133026;28;20080;-66
2023/08/10 12:33:21;;;;;;;5.70;1.98;;;21.10;78.40;;;;;;5133418;28;20558;-66
2023/08/10 12:35:46;;;;;;;4.32;2.40;;;20.80;81.50;;;;;;5133267;28;20035;-66
2023/08/10 12:38:12;;;;;;;5.05;2.63;;;20.60;83.00;;;;;;5133509;27;20023;-66
2023/08/10 12:40:39;;;;;;;3.08;2.00;;;20.50;83.60;;;;;;5135567;27;20054;-67
2023/08/10 12:43:05;;;;;;;4.57;2.75;;;20.50;84.50;;;;;;5137354;27;20034;-66
2023/08/10 12:45:31;;;;;;;3.90;2.40;;;20.50;86.00;;;;;;5137252;27;20031;-66
2023/08/10 12:47:59;;;;;;;5.20;2.38;;;20.40;86.30;;;;;;5136774;27;20420;-65